createdAt,value
2019-03-29T00:01:38.954Z,105.20
2019-03-29T00:04:07.940Z,102.50
2019-03-29T00:06:37.265Z,96.90
2019-03-29T00:09:07.773Z,94.17
2019-03-29T00:11:36.903Z,102.87
2019-03-29T00:14:05.791Z,95.77
2019-03-29T00:16:34.653Z,103.03
2019-03-29T00:19:04.369Z,98.97
2019-03-29T00:21:33.254Z,99.43
2019-03-29T00:24:07.056Z,106.23
2019-03-29T00:26:32.370Z,101.03
2019-03-29T00:29:01.376Z,104.93
2019-03-29T00:31:30.114Z,100.53
2019-03-29T00:33:58.833Z,94.07
2019-03-29T00:36:27.597Z,104.60
2019-03-29T00:38:56.313Z,94.97
2019-03-29T00:41:25.092Z,101.30
2019-03-29T00:43:54.186Z,101.63
2019-03-29T00:46:23.096Z,105.87
2019-03-29T00:48:51.902Z,90.37
2019-03-29T00:51:20.861Z,92.90
2019-03-29T00:53:49.685Z,85.00
2019-03-29T00:56:18.540Z,83.03
2019-03-29T00:58:48.138Z,83.77
2019-03-29T01:01:17.640Z,84.00
2019-03-29T01:03:46.338Z,80.10
2019-03-29T01:06:15.201Z,78.37
2019-03-29T01:08:43.846Z,85.90
2019-03-29T01:11:12.495Z,109.13
2019-03-29T01:13:41.222Z,111.33
2019-03-29T01:16:10.072Z,111.43
2019-03-29T01:18:38.936Z,113.97
2019-03-29T01:21:07.741Z,117.97
2019-03-29T01:23:36.621Z,115.97
2019-03-29T01:26:05.413Z,112.47
2019-03-29T01:28:34.251Z,114.93
2019-03-29T01:31:03.074Z,113.73
2019-03-29T01:33:31.972Z,118.37
2019-03-29T01:36:01.310Z,114.43
2019-03-29T01:38:30.761Z,120.37
2019-03-29T01:41:00.420Z,109.90
2019-03-29T01:43:29.929Z,100.53
2019-03-29T01:45:58.605Z,91.17
2019-03-29T01:48:27.351Z,89.87
2019-03-29T01:50:56.129Z,89.00
2019-03-29T01:53:24.960Z,102.37
2019-03-29T01:55:53.763Z,97.37
2019-03-29T01:58:22.611Z,92.50
2019-03-29T02:00:51.480Z,88.63
2019-03-29T02:03:20.131Z,99.03
2019-03-29T02:05:48.974Z,143.93
2019-03-29T02:08:17.692Z,139.73
2019-03-29T02:10:46.489Z,169.27
2019-03-29T02:13:15.287Z,107.27
2019-03-29T02:15:44.112Z,90.43
2019-03-29T02:18:13.312Z,90.33
2019-03-29T02:20:42.907Z,93.80
2019-03-29T02:23:11.742Z,125.43
2019-03-29T02:25:40.374Z,150.97
2019-03-29T02:28:09.311Z,107.47
2019-03-29T02:30:38.146Z,116.97
2019-03-29T02:33:06.820Z,116.57
2019-03-29T02:35:35.557Z,123.30
2019-03-29T02:38:04.465Z,112.40
2019-03-29T02:40:33.351Z,108.70
2019-03-29T02:43:02.083Z,117.10
2019-03-29T02:45:31.106Z,102.97
2019-03-29T02:47:59.958Z,97.60
2019-03-29T02:50:28.684Z,114.57
2019-03-29T02:52:57.500Z,136.03
2019-03-29T02:55:26.194Z,138.70
2019-03-29T02:57:54.948Z,153.13
2019-03-29T03:00:23.808Z,159.80
2019-03-29T03:02:52.579Z,142.20
2019-03-29T03:05:21.378Z,122.03
2019-03-29T03:07:50.056Z,122.07
2019-03-29T03:10:18.932Z,105.77
2019-03-29T03:12:47.697Z,104.83
2019-03-29T03:15:16.480Z,121.93
2019-03-29T03:17:45.300Z,113.57
2019-03-29T03:20:15.810Z,109.83
2019-03-29T03:22:44.781Z,100.13
2019-03-29T03:25:13.966Z,112.37
2019-03-29T03:27:42.808Z,103.63
2019-03-29T03:30:13.006Z,104.97
2019-03-29T03:32:41.750Z,115.07
2019-03-29T03:35:11.727Z,104.33
2019-03-29T03:37:40.688Z,112.70
2019-03-29T03:40:10.252Z,122.73
2019-03-29T03:42:39.262Z,113.33
2019-03-29T03:45:09.836Z,108.90
2019-03-29T03:47:39.805Z,110.37
2019-03-29T03:50:10.477Z,111.17
2019-03-29T03:52:39.239Z,105.40
2019-03-29T03:55:08.055Z,113.13
2019-03-29T03:57:38.617Z,113.30
2019-03-29T04:00:08.850Z,103.77
2019-03-29T04:02:37.992Z,102.83
2019-03-29T04:05:07.753Z,111.77
2019-03-29T04:07:36.503Z,100.33
2019-03-29T04:10:06.860Z,96.03
2019-03-29T04:12:35.794Z,101.67
2019-03-29T04:15:05.734Z,99.97
2019-03-29T04:17:34.376Z,102.33
2019-03-29T04:20:03.442Z,90.13
2019-03-29T04:22:32.089Z,102.90
2019-03-29T04:25:00.946Z,92.13
2019-03-29T04:27:29.820Z,89.87
2019-03-29T04:29:58.590Z,87.50
2019-03-29T04:32:27.387Z,85.90
2019-03-29T04:34:56.192Z,88.77
2019-03-29T04:37:24.897Z,92.40
2019-03-29T04:40:06.279Z,86.13
2019-03-29T04:42:23.988Z,79.17
2019-03-29T04:44:52.615Z,80.37
2019-03-29T04:47:21.288Z,81.80
2019-03-29T04:49:50.316Z,82.77
2019-03-29T04:52:19.052Z,84.93
2019-03-29T04:54:47.765Z,82.73
2019-03-29T04:57:16.599Z,87.10
2019-03-29T04:59:45.400Z,79.70
2019-03-29T05:02:14.155Z,76.10
2019-03-29T05:04:42.991Z,74.30
2019-03-29T05:07:11.675Z,75.00
2019-03-29T05:09:40.485Z,74.20
2019-03-29T05:12:09.400Z,76.43
2019-03-29T05:14:38.041Z,73.00
2019-03-29T05:17:06.889Z,67.37
2019-03-29T05:19:35.666Z,70.67
2019-03-29T05:22:04.564Z,76.47
2019-03-29T05:24:33.384Z,69.30
2019-03-29T05:27:02.333Z,72.17
2019-03-29T05:29:31.139Z,66.90
2019-03-29T05:31:59.991Z,66.10
2019-03-29T05:34:28.746Z,67.87
2019-03-29T05:36:58.568Z,63.10
2019-03-29T05:39:46.692Z,67.47
2019-03-29T05:42:15.351Z,67.97
2019-03-29T05:44:44.044Z,66.57
2019-03-29T05:47:12.754Z,66.53
2019-03-29T05:49:41.475Z,68.40
2019-03-29T05:52:10.204Z,71.73
2019-03-29T05:54:39.115Z,69.57
2019-03-29T05:57:07.975Z,70.43
2019-03-29T05:59:36.839Z,72.07
2019-03-29T06:02:05.788Z,70.70
2019-03-29T06:04:34.564Z,79.13
2019-03-29T06:07:03.353Z,76.07
2019-03-29T06:09:34.874Z,79.23
2019-03-29T06:12:02.474Z,75.63
2019-03-29T06:14:31.244Z,75.60
2019-03-29T06:17:00.076Z,80.17
2019-03-29T06:19:28.843Z,71.23
2019-03-29T06:21:57.598Z,83.13
2019-03-29T06:24:26.322Z,75.83
2019-03-29T06:26:55.611Z,84.23
2019-03-29T06:29:24.331Z,78.13
2019-03-29T06:31:53.111Z,92.93
2019-03-29T06:34:21.796Z,93.43
2019-03-29T06:36:51.559Z,87.93
2019-03-29T06:39:21.472Z,84.90
2019-03-29T06:41:50.270Z,83.23
2019-03-29T06:44:19.116Z,84.00
2019-03-29T06:46:47.926Z,76.17
2019-03-29T06:49:16.680Z,73.70
2019-03-29T06:51:45.513Z,73.37
2019-03-29T06:54:14.646Z,71.00
2019-03-29T06:56:43.283Z,63.77
2019-03-29T06:59:12.006Z,64.23
2019-03-29T07:01:40.777Z,61.03
2019-03-29T07:04:09.526Z,63.20
2019-03-29T07:06:38.306Z,68.33
2019-03-29T07:09:07.318Z,60.67
2019-03-29T07:11:39.441Z,64.43
2019-03-29T07:14:06.367Z,61.40
2019-03-29T07:16:35.059Z,58.13
2019-03-29T07:19:05.117Z,63.10
2019-03-29T07:21:34.118Z,63.83
2019-03-29T07:24:02.948Z,61.77
2019-03-29T07:26:31.616Z,62.60
2019-03-29T07:29:00.483Z,62.47
2019-03-29T07:31:29.380Z,64.07
2019-03-29T07:33:58.073Z,62.07
2019-03-29T07:36:26.891Z,66.80
2019-03-29T07:38:55.668Z,65.17
2019-03-29T07:41:31.774Z,66.23
2019-03-29T07:43:54.908Z,68.83
2019-03-29T07:46:23.663Z,74.63
2019-03-29T07:48:52.427Z,70.10
2019-03-29T07:51:21.105Z,71.33
2019-03-29T07:53:49.998Z,62.50
2019-03-29T07:56:18.851Z,59.93
2019-03-29T07:58:47.603Z,61.73
2019-03-29T08:01:16.380Z,49.60
2019-03-29T08:03:45.168Z,54.50
2019-03-29T08:06:13.930Z,53.60
2019-03-29T08:08:42.733Z,49.97
2019-03-29T08:11:25.211Z,48.30
2019-03-29T08:13:41.887Z,50.23
2019-03-29T08:16:10.674Z,50.87
2019-03-29T08:18:39.449Z,45.30
2019-03-29T08:21:08.236Z,39.90
2019-03-29T08:23:36.975Z,41.60
2019-03-29T08:26:05.775Z,37.03
2019-03-29T08:28:34.497Z,35.40
2019-03-29T08:31:03.260Z,39.47
2019-03-29T08:33:32.151Z,40.83
2019-03-29T08:36:00.826Z,35.77
2019-03-29T08:38:29.544Z,32.53
2019-03-29T08:40:58.245Z,34.90
2019-03-29T08:43:26.961Z,36.77
2019-03-29T08:45:57.536Z,30.30
2019-03-29T08:48:26.171Z,30.57
2019-03-29T08:50:54.876Z,28.37
2019-03-29T08:53:27.201Z,25.70
2019-03-29T08:55:54.248Z,27.40
2019-03-29T08:58:23.497Z,27.67
2019-03-29T09:00:52.352Z,28.57
2019-03-29T09:03:21.228Z,24.63
2019-03-29T09:05:51.280Z,22.67
2019-03-29T09:08:39.482Z,22.67
2019-03-29T09:11:08.174Z,24.30
2019-03-29T09:13:37.096Z,21.40
2019-03-29T09:16:05.900Z,22.07
2019-03-29T09:18:34.593Z,20.20
2019-03-29T09:21:03.228Z,18.60
2019-03-29T09:23:31.935Z,22.80
2019-03-29T09:26:00.688Z,20.17
2019-03-29T09:28:32.625Z,20.93
2019-03-29T09:30:59.909Z,22.13
2019-03-29T09:33:28.652Z,24.80
2019-03-29T09:35:57.407Z,21.73
2019-03-29T09:38:26.201Z,24.53
2019-03-29T09:40:58.861Z,24.37
2019-03-29T09:43:26.790Z,24.10
2019-03-29T09:45:55.658Z,23.53
2019-03-29T09:48:24.400Z,23.87
2019-03-29T09:50:53.309Z,27.87
2019-03-29T09:53:22.151Z,24.97
2019-03-29T09:55:53.416Z,28.03
2019-03-29T09:58:21.286Z,28.27
2019-03-29T10:00:50.123Z,25.07
2019-03-29T10:03:18.826Z,26.77
2019-03-29T10:05:47.553Z,26.10
2019-03-29T10:08:16.509Z,29.90
2019-03-29T10:10:45.122Z,25.57
2019-03-29T10:13:13.960Z,31.10
2019-03-29T10:15:42.857Z,25.73
2019-03-29T10:18:11.608Z,23.77
2019-03-29T10:20:40.428Z,23.30
2019-03-29T10:23:09.198Z,23.93
2019-03-29T10:25:38.057Z,25.73
2019-03-29T10:28:06.845Z,24.53
2019-03-29T10:30:40.794Z,25.13
2019-03-29T10:33:09.671Z,23.37
2019-03-29T10:35:50.795Z,25.40
2019-03-29T10:38:09.143Z,22.77
2019-03-29T10:40:37.986Z,23.67
2019-03-29T10:43:06.931Z,21.23
2019-03-29T10:45:39.955Z,19.33
2019-03-29T10:48:06.184Z,20.27
2019-03-29T10:50:34.990Z,20.27
2019-03-29T10:53:03.950Z,19.50
2019-03-29T10:55:32.649Z,19.07
2019-03-29T10:58:01.391Z,19.57
2019-03-29T11:00:34.982Z,21.17
2019-03-29T11:03:03.762Z,19.53
2019-03-29T11:05:32.526Z,22.27
2019-03-29T11:08:01.337Z,22.40
2019-03-29T11:10:32.221Z,21.87
2019-03-29T11:13:11.851Z,22.13
2019-03-29T11:15:31.722Z,23.40
2019-03-29T11:18:00.444Z,24.30
2019-03-29T11:20:29.414Z,22.03
2019-03-29T11:22:58.453Z,22.47
2019-03-29T11:25:27.419Z,22.60
2019-03-29T11:27:56.594Z,21.47
2019-03-29T11:30:25.394Z,21.40
2019-03-29T11:32:54.280Z,20.43
2019-03-29T11:35:23.076Z,18.40
2019-03-29T11:37:51.768Z,17.70
2019-03-29T11:40:20.535Z,17.70
2019-03-29T11:42:49.300Z,18.17
2019-03-29T11:45:18.245Z,14.97
2019-03-29T11:47:47.010Z,14.83
2019-03-29T11:50:16.018Z,16.50
2019-03-29T11:52:44.923Z,16.47
2019-03-29T11:55:13.753Z,15.50
2019-03-29T11:57:42.591Z,16.47
2019-03-29T12:00:12.857Z,16.73
2019-03-29T12:02:41.626Z,17.17
2019-03-29T12:05:10.504Z,14.63
2019-03-29T12:07:39.295Z,14.93
2019-03-29T12:10:09.187Z,15.83
2019-03-29T12:12:37.866Z,17.13
2019-03-29T12:15:08.407Z,16.77
2019-03-29T12:17:37.248Z,17.73
2019-03-29T12:20:07.240Z,21.90
2019-03-29T12:22:36.033Z,19.57
2019-03-29T12:25:06.579Z,19.00
2019-03-29T12:27:35.427Z,21.37
2019-03-29T12:30:07.826Z,20.47
2019-03-29T12:32:36.589Z,20.40
2019-03-29T12:35:10.052Z,19.10
2019-03-29T12:37:38.575Z,20.43
2019-03-29T12:40:08.590Z,20.97
2019-03-29T12:42:37.521Z,19.60
2019-03-29T12:45:07.607Z,20.97
2019-03-29T12:47:36.371Z,19.40
2019-03-29T12:50:07.502Z,24.20
2019-03-29T12:52:36.368Z,19.70
2019-03-29T12:55:05.928Z,22.77
2019-03-29T12:57:34.684Z,18.23
2019-03-29T13:00:04.919Z,18.63
2019-03-29T13:02:34.684Z,23.57
2019-03-29T13:05:04.496Z,19.00
2019-03-29T13:07:33.558Z,20.93
2019-03-29T13:10:02.386Z,23.17
2019-03-29T13:12:31.427Z,22.10
2019-03-29T13:15:00.365Z,20.77
2019-03-29T13:17:29.183Z,17.40
2019-03-29T13:19:57.998Z,18.97
2019-03-29T13:22:26.690Z,22.37
2019-03-29T13:24:55.452Z,19.73
2019-03-29T13:27:24.312Z,22.60
2019-03-29T13:29:53.236Z,22.70
2019-03-29T13:32:21.940Z,25.97
2019-03-29T13:34:51.553Z,21.80
2019-03-29T13:37:20.732Z,24.10
2019-03-29T13:39:49.458Z,24.00
2019-03-29T13:42:18.190Z,22.23
2019-03-29T13:44:47.026Z,21.60
2019-03-29T13:47:17.985Z,21.27
2019-03-29T13:49:46.022Z,21.87
2019-03-29T13:52:14.932Z,25.43
2019-03-29T13:54:43.662Z,19.73
2019-03-29T13:57:12.524Z,21.93
2019-03-29T13:59:41.396Z,21.03
2019-03-29T14:02:10.246Z,22.47
2019-03-29T14:04:39.024Z,20.80
2019-03-29T14:07:07.753Z,22.20
2019-03-29T14:09:36.599Z,23.07
2019-03-29T14:12:05.438Z,26.90
2019-03-29T14:14:38.445Z,23.77
2019-03-29T14:17:04.681Z,22.60
2019-03-29T14:19:33.479Z,26.20
2019-03-29T14:22:02.221Z,23.47
2019-03-29T14:24:30.874Z,21.90
2019-03-29T14:26:59.624Z,22.63
2019-03-29T14:29:28.413Z,18.97
2019-03-29T14:31:57.124Z,20.20
2019-03-29T14:34:25.888Z,20.10
2019-03-29T14:36:54.686Z,19.23
2019-03-29T14:39:23.671Z,20.67
2019-03-29T14:41:52.348Z,19.63
2019-03-29T14:44:21.347Z,20.93
2019-03-29T14:46:50.355Z,19.90
2019-03-29T14:49:19.211Z,27.40
2019-03-29T14:51:48.162Z,19.57
2019-03-29T14:54:17.100Z,22.57
2019-03-29T14:56:45.849Z,23.57
2019-03-29T14:59:14.728Z,26.73
2019-03-29T15:01:43.516Z,21.60
2019-03-29T15:04:12.224Z,21.43
2019-03-29T15:06:41.023Z,20.70
2019-03-29T15:09:09.941Z,25.00
2019-03-29T15:11:38.694Z,22.00
2019-03-29T15:14:07.555Z,26.40
2019-03-29T15:16:36.369Z,21.43
2019-03-29T15:19:05.098Z,20.50
2019-03-29T15:21:34.041Z,25.03
2019-03-29T15:24:02.997Z,22.67
2019-03-29T15:26:31.828Z,24.43
2019-03-29T15:29:00.609Z,24.70
2019-03-29T15:31:29.420Z,15.97
2019-03-29T15:33:58.200Z,21.77
2019-03-29T15:36:27.020Z,17.37
2019-03-29T15:38:55.688Z,16.73
2019-03-29T15:41:24.404Z,18.17
2019-03-29T15:43:53.218Z,18.67
2019-03-29T15:46:21.936Z,21.67
2019-03-29T15:48:50.596Z,18.47
2019-03-29T15:51:19.468Z,29.83
2019-03-29T15:53:48.332Z,19.50
2019-03-29T15:56:17.213Z,18.27
2019-03-29T15:58:46.084Z,20.50
2019-03-29T16:01:14.952Z,19.13
2019-03-29T16:03:43.705Z,19.33
2019-03-29T16:06:12.395Z,19.93
2019-03-29T16:08:41.122Z,20.60
2019-03-29T16:11:17.105Z,20.70
2019-03-29T16:13:40.545Z,21.63
2019-03-29T16:16:09.434Z,22.43
2019-03-29T16:18:38.108Z,22.43
2019-03-29T16:21:06.988Z,24.00
2019-03-29T16:23:35.956Z,21.90
2019-03-29T16:26:05.004Z,23.60
2019-03-29T16:28:36.867Z,24.33
2019-03-29T16:31:05.610Z,27.60
2019-03-29T16:33:36.016Z,27.93
2019-03-29T16:36:05.014Z,24.67
2019-03-29T16:38:33.751Z,25.43
2019-03-29T16:41:02.448Z,28.00
2019-03-29T16:43:31.204Z,28.30
2019-03-29T16:46:00.209Z,32.00
2019-03-29T16:48:29.036Z,30.50
2019-03-29T16:50:57.920Z,29.03
2019-03-29T16:53:26.590Z,28.40
2019-03-29T16:55:55.422Z,30.10
2019-03-29T16:58:24.194Z,33.70
2019-03-29T17:00:53.000Z,32.30
2019-03-29T17:03:21.943Z,31.77
2019-03-29T17:05:50.877Z,39.40
2019-03-29T17:08:19.708Z,31.87
2019-03-29T17:10:48.487Z,34.70
2019-03-29T17:13:17.336Z,31.50
2019-03-29T17:15:46.111Z,30.83
2019-03-29T17:18:28.424Z,31.03
2019-03-29T17:20:45.221Z,32.53
2019-03-29T17:23:13.951Z,53.60
2019-03-29T17:25:42.738Z,63.23
2019-03-29T17:28:11.505Z,62.03
2019-03-29T17:30:42.877Z,125.77
2019-03-29T17:33:11.789Z,123.17
2019-03-29T17:35:40.742Z,70.53
2019-03-29T17:38:09.603Z,122.93
2019-03-29T17:40:38.470Z,310.10
2019-03-29T17:43:07.273Z,234.70
2019-03-29T17:45:36.275Z,242.77
2019-03-29T17:48:06.023Z,240.70
2019-03-29T17:50:34.969Z,261.53
2019-03-29T17:53:03.942Z,285.20
2019-03-29T17:55:32.672Z,310.93
2019-03-29T17:58:01.580Z,298.80
2019-03-29T18:00:30.456Z,341.17
2019-03-29T18:02:59.167Z,287.07
2019-03-29T18:05:28.152Z,379.50
2019-03-29T18:07:56.876Z,337.50
2019-03-29T18:10:25.756Z,366.73
2019-03-29T18:12:54.532Z,336.37
2019-03-29T18:15:23.448Z,284.43
2019-03-29T18:17:52.256Z,288.97
2019-03-29T18:20:21.115Z,255.87
2019-03-29T18:22:49.871Z,276.97
2019-03-29T18:25:18.659Z,237.20
2019-03-29T18:27:47.587Z,223.37
2019-03-29T18:30:17.045Z,249.90
2019-03-29T18:32:45.890Z,223.63
2019-03-29T18:35:14.817Z,195.33
2019-03-29T18:37:43.751Z,200.17
2019-03-29T18:40:26.599Z,219.03
2019-03-29T18:42:56.413Z,204.97
2019-03-29T18:45:25.154Z,229.57
2019-03-29T18:47:53.821Z,228.77
2019-03-29T18:50:22.669Z,241.70
2019-03-29T18:52:51.420Z,242.27
2019-03-29T18:55:20.187Z,248.47
2019-03-29T18:57:49.156Z,245.77
2019-03-29T19:00:20.980Z,258.33
2019-03-29T19:02:49.919Z,245.97
2019-03-29T19:05:26.645Z,250.27
2019-03-29T19:07:55.583Z,242.33
2019-03-29T19:10:24.553Z,237.40
2019-03-29T19:12:53.778Z,238.37
2019-03-29T19:15:22.691Z,214.50
2019-03-29T19:17:51.526Z,225.97
2019-03-29T19:20:27.295Z,190.97
2019-03-29T19:22:50.770Z,207.23
2019-03-29T19:25:19.641Z,209.50
2019-03-29T19:27:48.548Z,194.23
2019-03-29T19:30:18.624Z,205.53
2019-03-29T19:32:48.140Z,238.77
2019-03-29T19:35:16.988Z,224.40
2019-03-29T19:37:47.231Z,222.07
2019-03-29T19:40:16.161Z,233.10
2019-03-29T19:42:45.743Z,230.10
2019-03-29T19:45:15.200Z,267.03
2019-03-29T19:47:44.210Z,248.27
2019-03-29T19:50:13.511Z,301.53
2019-03-29T19:52:42.339Z,342.20
2019-03-29T19:55:11.203Z,347.53
2019-03-29T19:57:39.942Z,323.27
2019-03-29T20:00:15.569Z,334.83
2019-03-29T20:02:44.650Z,356.87
2019-03-29T20:05:27.536Z,380.63
2019-03-29T20:07:56.771Z,368.13
2019-03-29T20:10:25.657Z,363.93
2019-03-29T20:12:54.673Z,365.60
2019-03-29T20:15:23.556Z,401.13
2019-03-29T20:17:52.818Z,400.30
2019-03-29T20:20:26.142Z,505.43
2019-03-29T20:22:56.071Z,453.87
2019-03-29T20:25:25.887Z,479.40
2019-03-29T20:27:58.312Z,441.47
2019-03-29T20:30:26.359Z,423.77
2019-03-29T20:32:55.314Z,422.67
2019-03-29T20:35:24.324Z,393.23
2019-03-29T20:37:53.534Z,380.57
2019-03-29T20:40:22.512Z,349.30
2019-03-29T20:42:51.338Z,365.07
2019-03-29T20:45:20.120Z,345.50
2019-03-29T20:47:51.906Z,363.13
2019-03-29T20:50:19.359Z,351.43
2019-03-29T20:52:48.597Z,351.60
2019-03-29T20:55:18.014Z,356.50
2019-03-29T20:57:47.180Z,300.10
2019-03-29T21:00:18.010Z,293.93
2019-03-29T21:02:46.783Z,300.57
2019-03-29T21:05:17.039Z,298.70
2019-03-29T21:07:45.874Z,347.83
2019-03-29T21:10:15.205Z,303.47
2019-03-29T21:12:44.536Z,329.20
2019-03-29T21:15:13.633Z,309.77
2019-03-29T21:17:55.564Z,308.87
2019-03-29T21:20:13.146Z,296.57
2019-03-29T21:22:41.935Z,276.13
2019-03-29T21:25:10.887Z,282.60
2019-03-29T21:27:39.662Z,277.57
2019-03-29T21:30:11.337Z,277.80
2019-03-29T21:32:40.074Z,271.17
2019-03-29T21:35:09.340Z,253.00
2019-03-29T21:37:38.077Z,266.87
2019-03-29T21:40:08.705Z,229.17
2019-03-29T21:42:37.738Z,199.00
2019-03-29T21:45:07.824Z,223.10
2019-03-29T21:47:36.616Z,230.67
2019-03-29T21:50:11.936Z,220.83
2019-03-29T21:52:40.750Z,203.30
2019-03-29T21:55:09.781Z,195.53
2019-03-29T21:57:38.722Z,182.10
2019-03-29T22:00:10.470Z,209.33
2019-03-29T22:02:39.243Z,235.63
2019-03-29T22:05:10.416Z,191.67
2019-03-29T22:07:38.719Z,200.40
2019-03-29T22:10:09.322Z,205.03
2019-03-29T22:12:38.343Z,188.63
2019-03-29T22:15:09.111Z,199.40
2019-03-29T22:17:38.267Z,221.87
2019-03-29T22:20:08.408Z,246.43
2019-03-29T22:22:37.177Z,254.73
2019-03-29T22:25:08.228Z,283.80
2019-03-29T22:27:37.261Z,293.80
2019-03-29T22:30:08.154Z,285.70
2019-03-29T22:32:36.895Z,251.93
2019-03-29T22:35:09.487Z,245.60
2019-03-29T22:37:38.483Z,226.33
2019-03-29T22:40:08.588Z,264.90
2019-03-29T22:42:37.501Z,281.53
2019-03-29T22:45:08.342Z,366.67
2019-03-29T22:47:37.267Z,318.20
2019-03-29T22:50:07.927Z,329.47
2019-03-29T22:52:36.740Z,364.87
2019-03-29T22:55:08.773Z,331.70
2019-03-29T22:57:37.608Z,335.07
2019-03-29T23:00:18.408Z,339.27
2019-03-29T23:02:47.345Z,331.60
2019-03-29T23:05:16.282Z,289.03
2019-03-29T23:07:45.181Z,284.73
2019-03-29T23:10:14.283Z,299.63
2019-03-29T23:12:43.136Z,300.20
2019-03-29T23:15:12.010Z,277.33
2019-03-29T23:17:40.763Z,254.17
2019-03-29T23:20:10.022Z,265.13
2019-03-29T23:22:39.017Z,240.83
2019-03-29T23:25:07.981Z,246.10
2019-03-29T23:27:36.750Z,315.67
2019-03-29T23:30:09.061Z,319.17
2019-03-29T23:32:37.885Z,286.83
2019-03-29T23:35:08.584Z,267.13
2019-03-29T23:37:37.655Z,253.40
2019-03-29T23:40:07.083Z,228.27
2019-03-29T23:42:35.840Z,249.60
2019-03-29T23:45:07.260Z,246.63
2019-03-29T23:47:36.271Z,228.73
2019-03-29T23:50:05.740Z,253.50
2019-03-29T23:52:34.512Z,225.57
2019-03-29T23:55:03.440Z,210.20
2019-03-29T23:57:32.246Z,206.13
